Terminal Aerodrome Forecast
Issued by NWS Bismarck, ND

Home | Current Version | Previous Version | Graphics & Text | Print | Product List | Glossary On
Versions: 1 2 3 4 5 6 7 8 9 10 11 12 13 14 15 16 17 18 19 20 21 22 23 24
000
FTUS43 KBIS 070159 AAA
TAFISN
TAF AMD
KISN 070159Z 0702/0724 31018G26KT P6SM SCT025 OVC050
      TEMPO 0702/0705 OVC025
     FM070500 30015KT P6SM OVC050
     FM071700 30015G25KT P6SM OVC030=

USA.gov is the U.S. government's official web portal to all federal, state and local government web resources and services.